Terminal Aerodrome Forecast
Issued by NWS

Home | Current Version | Previous Version | Text Only | Print | Product List | Glossary On
Versions: 1 2 3 4 5 6 7 8 9 10 11 12 13 14 15 16 17 18
000
FTUS43 KMQT 292333
TAFIWD
TAF
KIWD 292333Z 3000/3024 34008KT 6SM -SHRA BR OVC012
      TEMPO 3000/3003 OVC008
     FM300600 36006KT P6SM BKN020
     FM301000 36007KT P6SM BKN035
     FM301200 36008KT P6SM SCT070
      AMD LTD TO CLD VIS AND WIND=

USA.gov is the U.S. government's official web portal to all federal, state and local government web resources and services.